createdAt,value
2022-12-03T00:00:26.431Z,34.1
2022-12-03T00:05:30.966Z,34.5
2022-12-03T00:10:20.075Z,35.0
2022-12-03T00:15:26.730Z,36.8
2022-12-03T00:20:33.884Z,32.6
2022-12-03T00:25:21.776Z,34.3
2022-12-03T00:30:27.785Z,34.2
2022-12-03T00:35:16.928Z,30.6
2022-12-03T00:40:24.354Z,35.2
2022-12-03T00:45:29.094Z,40.5
2022-12-03T00:50:18.013Z,30.7
2022-12-03T00:55:24.106Z,30.8
2022-12-03T01:00:31.049Z,32.4
2022-12-03T01:05:18.580Z,30.2
2022-12-03T01:10:24.521Z,27.9
2022-12-03T01:15:30.264Z,34.3
2022-12-03T01:20:20.086Z,30.4
2022-12-03T01:25:25.404Z,30.4
2022-12-03T01:30:31.424Z,28.7
2022-12-03T01:35:20.416Z,31.3
2022-12-03T01:40:28.036Z,27.0
2022-12-03T01:45:33.522Z,26.6
2022-12-03T01:50:21.599Z,28.9
2022-12-03T01:55:27.756Z,27.0
2022-12-03T02:00:17.673Z,26.8
2022-12-03T02:05:22.222Z,27.9
2022-12-03T02:10:28.274Z,29.4
2022-12-03T02:15:16.952Z,28.6
2022-12-03T02:20:24.248Z,29.7
2022-12-03T02:25:29.129Z,29.7
2022-12-03T02:30:18.090Z,32.1
2022-12-03T02:35:24.119Z,31.7
2022-12-03T02:40:32.708Z,30.5
2022-12-03T02:45:19.239Z,33.1
2022-12-03T02:50:25.326Z,30.4
2022-12-03T02:55:36.609Z,31.2
2022-12-03T03:00:21.111Z,30.7
2022-12-03T03:05:27.092Z,31.1
2022-12-03T03:10:33.099Z,27.6
2022-12-03T03:15:21.826Z,30.3
2022-12-03T03:20:39.926Z,29.4
2022-12-03T03:25:16.755Z,29.0
2022-12-03T03:30:22.912Z,27.7
2022-12-03T03:35:28.906Z,31.5
2022-12-03T03:40:18.989Z,32.8
2022-12-03T03:45:28.876Z,36.1
2022-12-03T03:50:30.303Z,35.4
2022-12-03T03:55:19.133Z,30.4
2022-12-03T04:00:41.539Z,29.8
2022-12-03T04:05:30.876Z,31.8
2022-12-03T04:10:19.581Z,36.7
2022-12-03T04:15:25.295Z,35.3
2022-12-03T04:20:32.941Z,32.2
2022-12-03T04:25:20.516Z,31.4
2022-12-03T04:30:26.608Z,29.8
2022-12-03T04:35:32.598Z,32.0
2022-12-03T04:40:22.727Z,32.5
2022-12-03T04:45:27.634Z,34.8
2022-12-03T04:50:16.659Z,33.1
2022-12-03T04:55:22.916Z,31.8
2022-12-03T05:00:30.018Z,30.7
2022-12-03T05:05:17.489Z,32.0
2022-12-03T05:10:23.578Z,33.5
2022-12-03T05:15:29.121Z,34.3
2022-12-03T05:20:18.801Z,33.6
2022-12-03T05:25:24.178Z,33.0
2022-12-03T05:30:30.425Z,29.4
2022-12-03T05:35:19.327Z,31.0
2022-12-03T05:40:26.664Z,30.1
2022-12-03T05:45:31.438Z,29.5
2022-12-03T05:50:21.222Z,26.0
2022-12-03T05:55:26.673Z,26.9
2022-12-03T06:00:37.664Z,26.6
2022-12-03T06:05:21.969Z,22.8
2022-12-03T06:10:27.126Z,19.9
2022-12-03T06:15:16.835Z,19.5
2022-12-03T06:20:23.983Z,20.9
2022-12-03T06:25:28.900Z,18.9
2022-12-03T06:30:17.974Z,18.4
2022-12-03T06:35:23.954Z,17.6
2022-12-03T06:40:31.032Z,23.2
2022-12-03T06:45:19.106Z,44.7
2022-12-03T06:50:25.258Z,18.7
2022-12-03T06:55:31.371Z,18.1
2022-12-03T07:00:21.029Z,17.6
2022-12-03T07:05:26.000Z,20.3
2022-12-03T07:10:31.874Z,20.6
2022-12-03T07:15:20.459Z,19.6
2022-12-03T07:20:27.091Z,20.6
2022-12-03T07:25:32.525Z,42.2
2022-12-03T07:30:21.610Z,93.8
2022-12-03T07:35:27.578Z,49.4
2022-12-03T07:40:23.273Z,17.7
2022-12-03T07:45:22.829Z,20.2
2022-12-03T07:50:28.748Z,19.5
2022-12-03T07:55:17.813Z,19.1
2022-12-03T08:00:25.486Z,21.6
2022-12-03T08:05:29.606Z,19.3
2022-12-03T08:10:18.504Z,19.1
2022-12-03T08:15:24.020Z,20.3
2022-12-03T08:20:31.392Z,23.0
2022-12-03T08:25:19.117Z,27.0
2022-12-03T08:30:25.319Z,24.7
2022-12-03T08:35:31.317Z,18.5
2022-12-03T08:40:35.782Z,14.5
2022-12-03T08:45:26.461Z,17.4
2022-12-03T08:50:32.484Z,16.3
2022-12-03T08:55:21.430Z,17.3
2022-12-03T09:00:29.119Z,23.8
2022-12-03T09:05:16.923Z,24.2
2022-12-03T09:10:22.961Z,18.7
2022-12-03T09:15:28.694Z,16.5
2022-12-03T09:20:19.212Z,18.2
2022-12-03T09:25:23.854Z,17.3
2022-12-03T09:30:29.885Z,21.7
2022-12-03T09:35:18.961Z,17.1
2022-12-03T09:40:25.999Z,15.6
2022-12-03T09:45:31.575Z,17.2
2022-12-03T09:50:20.165Z,14.3
2022-12-03T09:55:26.316Z,16.0
2022-12-03T10:00:34.608Z,14.6
2022-12-03T10:05:20.624Z,14.1
2022-12-03T10:10:26.756Z,13.0
2022-12-03T10:15:32.877Z,14.2
2022-12-03T10:20:22.028Z,15.0
2022-12-03T10:25:27.462Z,14.5
2022-12-03T10:30:16.533Z,13.7
2022-12-03T10:35:22.635Z,15.9
2022-12-03T10:40:29.895Z,15.5
2022-12-03T10:45:17.717Z,20.1
2022-12-03T10:50:23.941Z,19.0
2022-12-03T10:55:29.811Z,15.5
2022-12-03T11:00:28.999Z,15.4
2022-12-03T11:05:24.204Z,17.2
2022-12-03T11:10:30.338Z,20.2
2022-12-03T11:15:20.524Z,17.5
2022-12-03T11:20:30.722Z,16.7
2022-12-03T11:25:31.861Z,15.8
2022-12-03T11:30:20.962Z,15.6
2022-12-03T11:35:26.939Z,14.5
2022-12-03T11:40:39.317Z,15.8
2022-12-03T11:45:22.084Z,15.5
2022-12-03T11:50:28.095Z,15.2
2022-12-03T11:55:17.197Z,16.8
2022-12-03T12:00:30.673Z,16.1
2022-12-03T12:05:28.746Z,16.7
2022-12-03T12:10:17.655Z,16.3
2022-12-03T12:15:23.623Z,15.8
2022-12-03T12:20:31.748Z,16.8
2022-12-03T12:25:18.680Z,16.6
2022-12-03T12:30:24.640Z,16.8
2022-12-03T12:35:30.731Z,16.0
2022-12-03T12:40:34.259Z,17.9
2022-12-03T12:45:25.859Z,16.9
2022-12-03T12:50:31.925Z,19.0
2022-12-03T12:55:20.905Z,18.3
2022-12-03T13:00:27.934Z,17.8
2022-12-03T13:05:32.397Z,17.4
2022-12-03T13:10:21.447Z,18.9
2022-12-03T13:15:27.153Z,17.9
2022-12-03T13:20:16.967Z,19.5
2022-12-03T13:25:43.968Z,19.0
2022-12-03T13:30:28.377Z,19.3
2022-12-03T13:35:17.361Z,18.4
2022-12-03T13:40:25.099Z,18.1
2022-12-03T13:45:29.524Z,16.9
2022-12-03T13:50:18.563Z,17.1
2022-12-03T13:55:24.694Z,19.1
2022-12-03T14:00:31.607Z,17.4
2022-12-03T14:05:19.909Z,18.5
2022-12-03T14:10:25.015Z,18.4
2022-12-03T14:15:32.036Z,18.7
2022-12-03T14:20:21.829Z,20.7
2022-12-03T14:25:26.978Z,19.8
2022-12-03T14:30:33.292Z,28.3
2022-12-03T14:35:22.057Z,20.0
2022-12-03T14:40:29.341Z,19.1
2022-12-03T14:45:17.154Z,19.1
2022-12-03T14:50:23.283Z,25.0
2022-12-03T14:55:29.272Z,18.3
2022-12-03T15:00:18.944Z,19.6
2022-12-03T15:05:28.619Z,20.2
2022-12-03T15:10:29.876Z,19.9
2022-12-03T15:15:18.444Z,18.9
2022-12-03T15:20:25.576Z,16.8
2022-12-03T15:25:30.590Z,18.0
2022-12-03T15:30:20.252Z,17.1
2022-12-03T15:35:25.734Z,20.0
2022-12-03T15:40:33.311Z,20.8
2022-12-03T15:45:20.778Z,17.6
2022-12-03T15:50:26.908Z,17.8
2022-12-03T15:55:33.751Z,18.0
2022-12-03T16:00:22.574Z,19.1
2022-12-03T16:05:28.368Z,18.3
2022-12-03T16:10:16.399Z,18.5
2022-12-03T16:15:26.696Z,19.6
2022-12-03T16:20:29.529Z,20.0
2022-12-03T16:25:17.273Z,16.9
2022-12-03T16:30:23.305Z,20.3
2022-12-03T16:35:29.516Z,19.0
2022-12-03T16:40:19.433Z,17.1
2022-12-03T16:45:24.458Z,18.9
2022-12-03T16:50:30.709Z,19.1
2022-12-03T16:55:19.778Z,22.1
2022-12-03T17:00:40.386Z,17.0
2022-12-03T17:05:31.182Z,19.3
2022-12-03T17:10:21.092Z,21.0
2022-12-03T17:15:25.893Z,20.1
2022-12-03T17:20:33.207Z,20.3
2022-12-03T17:25:21.000Z,18.1
2022-12-03T17:30:27.077Z,20.1
2022-12-03T17:35:16.187Z,18.9
2022-12-03T17:40:27.254Z,20.4
2022-12-03T17:45:28.213Z,21.6
2022-12-03T17:50:17.357Z,18.3
2022-12-03T17:55:34.587Z,19.2
2022-12-03T18:00:30.428Z,20.8
2022-12-03T18:05:18.849Z,19.0
2022-12-03T18:10:24.825Z,17.6
2022-12-03T18:15:30.677Z,19.0
2022-12-03T18:20:32.768Z,18.1
2022-12-03T18:25:25.763Z,16.7
2022-12-03T18:30:31.869Z,15.8
2022-12-03T18:35:20.816Z,15.8
2022-12-03T18:41:14.125Z,18.3
2022-12-03T18:45:33.354Z,17.5
2022-12-03T18:50:22.049Z,17.0
2022-12-03T18:55:28.029Z,18.4
2022-12-03T19:00:17.816Z,18.1
2022-12-03T19:05:23.039Z,15.0
2022-12-03T19:10:28.631Z,15.7
2022-12-03T19:15:17.656Z,22.1
2022-12-03T19:20:23.913Z,32.6
2022-12-03T19:25:29.426Z,16.4
2022-12-03T19:30:18.405Z,15.5
2022-12-03T19:35:24.443Z,15.4
2022-12-03T19:40:31.572Z,15.9
2022-12-03T19:45:19.551Z,16.5
2022-12-03T19:50:25.599Z,17.9
2022-12-03T19:55:31.780Z,17.8
2022-12-03T20:00:21.461Z,15.6
2022-12-03T20:05:31.765Z,19.6
2022-12-03T20:10:32.523Z,17.6
2022-12-03T20:15:21.472Z,15.2
2022-12-03T20:20:28.069Z,15.2
2022-12-03T20:25:16.098Z,15.8
2022-12-03T20:30:22.181Z,14.5
2022-12-03T20:35:28.222Z,15.2
2022-12-03T20:40:18.196Z,15.1
2022-12-03T20:45:23.221Z,13.9
2022-12-03T20:50:29.375Z,14.3
2022-12-03T20:55:18.641Z,15.3
2022-12-03T21:00:25.244Z,16.2
2022-12-03T21:05:30.822Z,16.5
2022-12-03T21:10:19.800Z,16.5
2022-12-03T21:15:26.004Z,15.7
2022-12-03T21:20:38.103Z,17.9
2022-12-03T21:25:20.668Z,17.2
2022-12-03T21:30:26.770Z,17.6
2022-12-03T21:35:33.183Z,17.3
2022-12-03T21:40:27.880Z,16.1
2022-12-03T21:45:27.961Z,15.9
2022-12-03T21:50:16.819Z,15.7
2022-12-03T21:55:22.912Z,17.7
2022-12-03T22:00:30.893Z,16.0
2022-12-03T22:05:17.367Z,15.4
2022-12-03T22:10:23.514Z,18.7
2022-12-03T22:15:29.910Z,16.9
2022-12-03T22:20:18.986Z,14.5
2022-12-03T22:25:24.226Z,14.1
2022-12-03T22:30:30.411Z,15.6
2022-12-03T22:35:19.293Z,15.0
2022-12-03T22:40:26.580Z,14.9
2022-12-03T22:45:31.563Z,15.1
2022-12-03T22:50:20.554Z,15.4
2022-12-03T22:55:26.697Z,17.0
2022-12-03T23:00:33.628Z,15.1
2022-12-03T23:05:21.008Z,14.0
2022-12-03T23:10:30.992Z,14.0
2022-12-03T23:15:16.133Z,14.0
2022-12-03T23:20:23.851Z,13.2
2022-12-03T23:25:28.982Z,13.4
2022-12-03T23:30:18.047Z,15.1
2022-12-03T23:35:24.130Z,14.3
2022-12-03T23:40:31.294Z,14.0
2022-12-03T23:45:19.178Z,14.0
2022-12-03T23:50:25.251Z,12.9
2022-12-03T23:55:31.323Z,13.4
